x

Buoy B01 - Western Maine Shelf (44030) Wave Buoy

1:04 - Wed 3rd Sep 2014 All times are EDT. -4 hours from GMT.

  • Sig Wave height 2.0ft
  • Peak Period 5s
  • Wind
    9mph, 11mph gusts
  • Sea Temp 64°f
  • Ar Temp 67°f
  • Sea Pressure 1004.4mb
  • Buoy B01 - Western Maine Shelf
  • Buoy B01 - Western Maine Shelf

More Historic Weather Station data

Upgrade to MSW Pro to gain access to the past 30 days of data for over 8000 Wavebouys and Weather Stations around the globe.

Join Pro

Comparision Forecast

View Surf forecast
   
Qua 09/03 1:04 2ft 5s 9 11 mph 1004.4mb 64f 67f
12:04 2ft 6s 7 9 mph 1004.9mb 64f 67f
Ter 09/02 11:04 2ft 8s 7 9 mph 1005.6mb 64f 66f
10:04 1.6ft 8s 7 9 mph 1005.9mb 64f 67f
9:04 1.6ft 6s 4
mph
1006.4mb 65f 67f
8:04 1.6ft 6s 7
mph
1006.5mb 66f 67f
7:04 2.5ft 6s 11 13 mph 1006.8mb 65f 68f
6:04 2ft 6s 9
mph
1007.2mb 66f 68f
5:04 2ft 6s 9 11 mph 1007.4mb 65f 69f
4:04 2ft 8s 11 25 mph 1007.5mb 65f 67f
3:04 2ft 6s 9 11 mph 1007.8mb 66f 69f
2:04 1.6ft 8s 7
mph
1008.8mb 66f 68f
1:04 1.6ft 6s 9
mph
1009.7mb 66f 68f
12:04 1.6ft 8s 4
mph
1010.3mb 67f 68f
11:04 1.3ft 6s 7 9 mph 1011mb 66f 69f
10:04 1.6ft 6s 2
mph
1011.9mb 64f 68f
9:04 1.6ft 8s  -  2 mph 1011.5mb 64f 67f
8:04 1.6ft 5s  -  2 mph 1011.5mb 64f 65f
7:04 2ft 6s 4
mph
1011.2mb 63f 64f
6:04 1.6ft 11s 4 7 mph 1010.7mb 64f 64f
5:04 1.6ft 8s 2
mph
1010.4mb 64f 65f
4:04 1.6ft 8s 4 7 mph 1010.5mb 64f 65f
3:04 2ft 8s 4
mph
1011mb 64f 65f
2:04 1.6ft 11s 4 7 mph 1011.4mb 64f 65f
1:04 1.6ft 11s 4 7 mph 1012.1mb 64f 64f
12:04 1.6ft 11s 4
mph
1011.9mb 64f 64f
Seg 09/01 11:04 1.6ft 11s 4
mph
1012.1mb 64f 65f
10:04 2ft 11s 4
mph
1012.4mb 64f 65f
9:04 1.3ft 6s 4
mph
1012.4mb 64f 66f
8:04 1.6ft 6s 4
mph
1011.8mb 64f 66f
7:04 2ft 6s 7
mph
1011.3mb 64f 67f
6:04 1.6ft 6s 11
mph
1011.3mb 65f 68f
5:04 1.6ft 8s 9 11 mph 1011.5mb 65f 68f
4:04 2.5ft 6s 9
mph
1011.6mb 65f 68f
3:04 2ft 8s 9
mph
1012.1mb 66f 69f
2:04 2ft 8s 7 9 mph 1012.6mb 66f 68f
1:04 2ft 8s 7 9 mph 1012.8mb 65f 68f
12:04 2.5ft 11s 7
mph
1013mb 65f 67f
11:04 2ft 8s 2 4 mph 1013.2mb 62f 67f
10:04 2ft 11s 4
mph
1013.5mb 62f 65f
9:04 2.5ft 8s 4
mph
1013.6mb 62f 64f
8:04 1.6ft 5s 7
mph
1013.4mb 62f 65f
7:04 2ft 6s 9
mph
1013.1mb 62f 65f
6:04 1.6ft 5s 9
mph
1012.8mb 62f 65f
5:04 2.5ft 11s 7
mph
1012.2mb 62f 65f
4:04 2.5ft 11s 9 11 mph 1011.9mb 62f 65f
3:04 2.5ft 5s 7
mph
1011.8mb 63f 64f
2:04 2.5ft 5s 7 9 mph 1011.8mb 63f 65f
1:04 2.5ft 5s 7 9 mph 1012.4mb 63f 65f
12:04 1.6ft 5s 7 9 mph 1012.3mb 62f 65f
Dom 08/31 11:04 2.5ft 11s 9
mph
1012.6mb 62f 65f
10:04 2ft 8s 11
mph
1012.8mb 62f 65f
9:04 1.6ft 5s 11
mph
1013.2mb 62f 65f
8:04 2ft 5s 7 9 mph 1012.7mb 62f 65f
6:04 2.5ft 5s 7 9 mph 1012.7mb 63f 66f
5:04 2.5ft 5s 7
mph
1012.6mb 63f 66f
4:04 2.5ft 8s 9
mph
1012.6mb 63f 67f
3:04 2.5ft 8s 11 13 mph 1012.7mb 63f 68f
2:04 2.5ft 8s 11 16 mph 1013.1mb 63f 68f
1:04 2.5ft 8s 7 9 mph 1013.9mb 63f 66f
12:04 2.5ft 5s 11
mph
1014.5mb 62f 65f
11:04 3ft 5s 13 16 mph 1015.3mb 62f 65f
10:04 3ft 8s 11 13 mph 1015.9mb 62f 64f
9:04 3.5ft 5s 13
mph
1016.1mb 61f 64f
8:04 3ft 5s 13 16 mph 1016.2mb 61f 64f
7:04 3ft 5s 13 16 mph 1016.4mb 61f 64f
6:04 3ft 5s 13
mph
1016.4mb 61f 64f
5:04 3.5ft 5s 16 18 mph 1016.4mb 61f 64f
4:04 3.5ft 5s 16 20 mph 1016.5mb 61f 64f
3:04 3.5ft 5s 18 20 mph 1016.8mb 62f 64f
2:04 3.5ft 5s 16 20 mph 1017.5mb 62f 64f
1:04 3.5ft 5s 16 18 mph 1018.1mb 62f 64f
12:04 3.5ft 5s 18 20 mph 1018.3mb 62f 64f
Sáb 08/30 11:04 4ft 5s 18 22 mph 1018.7mb 62f 64f
10:04 4ft 5s 18 20 mph 1018.9mb 62f 65f
9:04 4.5ft 5s 18 20 mph 1019mb 62f 65f
8:04 4ft 5s 18 22 mph 1018.7mb 62f 65f
7:04 3.5ft 5s 18 20 mph 1018.9mb 62f 65f
6:04 3.5ft 5s 18 22 mph 1019.5mb 63f 65f
5:04 4ft 5s 20 22 mph 1020mb 63f 65f
3:04 3.5ft 5s 20 25 mph 1021.1mb 65f 64f
2:04 3.5ft 4s 20 25 mph 1021.9mb 65f 64f
1:04 3ft 4s 20 22 mph 1023mb 65f 64f
12:04 2.5ft 4s 18 20 mph 1023.7mb 65f 64f
11:04 3.5ft 11s 16 18 mph 1024.3mb 64f 64f
10:04 3.5ft 11s 13 18 mph 1024.4mb 64f 63f
9:04  -   -  16 18 mph 1024.5mb 64f 63f
8:04 3.5ft 11s 13 16 mph 1024.8mb 64f 63f
7:04 3.5ft 11s 13 16 mph 1024.7mb 64f 63f